Main page
METAR-TAF:

METAR-TAF

Airports :

Antonio B. Won Pat International Airport

Hagåtña, Guam, United States

latitude: 13-29N, longitude: 144-48E, elevation: 91 m

Current weather observation

The report was made 37 minutes ago, at 00:54 UTC
Wind 12 kt from the East with gusts up to 17 kt
Temperature 31°C
Humidity 49%
Pressure 1014 hPa
Visibility: 16.1 km
Clear sky

METAR: PGUM 190054Z 09012G17KT 10SM CLR 31/19 A2994 RMK AO2 SLP129 T03060194

Time: 11:31 (01:31 UTC)

Forecast

The report was made 1 hour and 59 minutes ago, at 23:32 UTC
Forecast valid from 19 at 00 UTC to 20 at 06 UTC
Wind 11 kt from the East
Visibility: 10 km
Few clouds at a height of 2000 ft
Scattered clouds at a height of 4000 ft

TAF: PGUM 182332Z 1900/2006 08011KT P6SM FEW020 SCT040

Weather observations and forecasts of more than 4000 airports (METAR and TAF reports).

The available stations are represented by yellow and red dots on the map.

Hover mouse over dot to see the name of the station.

Then click to see weather observations and forecasts.

To change the map : click on the green buttons with a black cross to zoom in, on the green button with a dash to zoom out, or on the green arrows for adjacent maps.


METAR-TAF: